createdAt,value
2022-08-26T00:00:11.329Z,0.00
2022-08-26T00:01:11.544Z,0.00
2022-08-26T00:02:26.305Z,0.00
2022-08-26T00:03:17.490Z,0.00
2022-08-26T00:04:15.685Z,0.00
2022-08-26T00:05:09.104Z,0.00
2022-08-26T00:06:08.794Z,0.00
2022-08-26T00:07:22.354Z,0.00
2022-08-26T00:08:13.568Z,0.00
2022-08-26T00:09:11.783Z,0.00
2022-08-26T00:10:09.140Z,0.00
2022-08-26T00:11:07.991Z,0.00
2022-08-26T00:12:12.652Z,0.00
2022-08-26T00:13:12.673Z,0.00
2022-08-26T00:14:18.105Z,0.00
2022-08-26T00:15:07.997Z,0.00
2022-08-26T00:16:10.186Z,0.00
2022-08-26T00:17:08.790Z,0.00
2022-08-26T00:18:22.073Z,0.00
2022-08-26T00:19:09.839Z,0.00
2022-08-26T00:20:11.244Z,0.00
2022-08-26T00:21:15.226Z,0.00
2022-08-26T00:22:11.366Z,0.00
2022-08-26T00:23:16.407Z,0.00
2022-08-26T00:24:08.079Z,0.00
2022-08-26T00:25:07.852Z,0.00
2022-08-26T00:26:08.421Z,0.00
2022-08-26T00:27:07.830Z,0.00
2022-08-26T00:28:07.782Z,0.00
2022-08-26T00:29:07.768Z,0.00
2022-08-26T00:30:07.783Z,0.00
2022-08-26T00:31:07.700Z,0.00
2022-08-26T00:32:07.762Z,0.00
2022-08-26T00:33:07.987Z,0.00
2022-08-26T00:34:09.598Z,0.00
2022-08-26T00:35:09.602Z,0.00
2022-08-26T00:36:07.812Z,0.00
2022-08-26T00:37:11.647Z,0.00
2022-08-26T00:38:11.191Z,0.00
2022-08-26T00:39:11.062Z,0.00
2022-08-26T00:40:16.865Z,0.00
2022-08-26T00:41:09.127Z,0.00
2022-08-26T00:42:32.275Z,0.00
2022-08-26T00:43:18.546Z,0.00
2022-08-26T00:44:08.833Z,0.00
2022-08-26T00:45:11.644Z,0.00
2022-08-26T00:46:07.744Z,0.00
2022-08-26T00:47:07.551Z,0.00
2022-08-26T00:48:07.512Z,0.00
2022-08-26T00:49:12.189Z,0.00
2022-08-26T00:50:08.466Z,0.00
2022-08-26T00:51:07.473Z,0.00
2022-08-26T00:52:09.779Z,0.00
2022-08-26T00:53:07.904Z,0.00
2022-08-26T00:54:07.602Z,0.00
2022-08-26T00:55:07.408Z,0.00
2022-08-26T00:56:07.409Z,0.00
2022-08-26T00:57:08.590Z,0.00
2022-08-26T00:58:08.452Z,0.00
2022-08-26T00:59:07.453Z,0.00
2022-08-26T01:00:07.404Z,0.00
2022-08-26T01:01:07.639Z,0.00
2022-08-26T01:02:07.345Z,0.00
2022-08-26T01:03:12.625Z,0.00
2022-08-26T01:04:07.313Z,0.00
2022-08-26T01:05:07.278Z,0.00
2022-08-26T01:06:12.574Z,0.00
2022-08-26T01:07:09.836Z,0.00
2022-08-26T01:08:07.699Z,0.00
2022-08-26T01:09:07.267Z,0.00
2022-08-26T01:10:07.241Z,0.00
2022-08-26T01:11:07.198Z,0.00
2022-08-26T01:12:07.328Z,0.00
2022-08-26T01:13:07.341Z,0.00
2022-08-26T01:14:07.200Z,0.00
2022-08-26T01:15:07.249Z,0.00
2022-08-26T01:16:07.160Z,0.00
2022-08-26T01:17:07.616Z,0.00
2022-08-26T01:18:08.343Z,0.00
2022-08-26T01:19:07.127Z,0.00
2022-08-26T01:20:07.088Z,0.00
2022-08-26T01:21:07.112Z,0.00
2022-08-26T01:22:07.180Z,0.00
2022-08-26T01:23:08.717Z,0.00
2022-08-26T01:24:07.031Z,0.00
2022-08-26T01:25:07.012Z,0.00
2022-08-26T01:26:07.040Z,0.00
2022-08-26T01:27:08.104Z,0.00
2022-08-26T01:28:07.890Z,0.00
2022-08-26T01:29:07.003Z,0.00
2022-08-26T01:30:07.022Z,0.00
2022-08-26T01:31:06.946Z,0.00
2022-08-26T01:32:06.943Z,0.00
2022-08-26T01:33:07.045Z,0.00
2022-08-26T01:34:06.914Z,0.00
2022-08-26T01:35:06.920Z,0.00
2022-08-26T01:36:06.894Z,0.00
2022-08-26T01:37:06.945Z,0.00
2022-08-26T01:38:06.874Z,0.00
2022-08-26T01:39:07.373Z,0.00
2022-08-26T01:40:06.868Z,0.00
2022-08-26T01:41:16.125Z,0.00
2022-08-26T01:42:10.342Z,0.00
2022-08-26T01:43:06.878Z,0.00
2022-08-26T01:44:06.766Z,0.00
2022-08-26T01:45:06.816Z,0.00
2022-08-26T01:46:06.804Z,0.00
2022-08-26T01:47:06.730Z,0.00
2022-08-26T01:48:07.512Z,0.00
2022-08-26T01:49:06.737Z,0.00
2022-08-26T01:50:06.691Z,0.00
2022-08-26T01:51:06.683Z,0.00
2022-08-26T01:52:06.720Z,0.00
2022-08-26T01:53:07.043Z,0.00
2022-08-26T01:54:06.641Z,0.00
2022-08-26T01:55:06.620Z,0.00
2022-08-26T01:56:06.629Z,0.00
2022-08-26T01:57:06.820Z,0.00
2022-08-26T01:58:06.618Z,0.00
2022-08-26T01:59:06.580Z,0.00
2022-08-26T02:00:06.622Z,0.00
2022-08-26T02:01:06.587Z,0.00
2022-08-26T02:02:06.533Z,0.00
2022-08-26T02:03:06.628Z,0.00
2022-08-26T02:04:06.577Z,0.00
2022-08-26T02:05:06.560Z,0.00
2022-08-26T02:06:06.487Z,0.00
2022-08-26T02:07:06.495Z,0.00
2022-08-26T02:08:06.615Z,0.00
2022-08-26T02:09:06.437Z,0.00
2022-08-26T02:10:06.446Z,0.00
2022-08-26T02:11:06.487Z,0.00
2022-08-26T02:12:06.407Z,0.00
2022-08-26T02:13:06.625Z,0.00
2022-08-26T02:14:06.839Z,0.00
2022-08-26T02:15:06.357Z,0.00
2022-08-26T02:16:06.409Z,0.00
2022-08-26T02:17:06.449Z,0.00
2022-08-26T02:18:06.437Z,0.00
2022-08-26T02:19:06.332Z,0.00
2022-08-26T02:20:06.340Z,0.00
2022-08-26T02:21:07.331Z,0.00
2022-08-26T02:22:06.428Z,0.00
2022-08-26T02:23:06.583Z,0.00
2022-08-26T02:24:06.259Z,0.00
2022-08-26T02:25:06.248Z,0.00
2022-08-26T02:26:06.242Z,0.00
2022-08-26T02:27:06.204Z,0.00
2022-08-26T02:28:07.687Z,0.00
2022-08-26T02:29:07.572Z,0.00
2022-08-26T02:30:07.059Z,0.00
2022-08-26T02:31:06.499Z,0.00
2022-08-26T02:32:06.183Z,0.00
2022-08-26T02:33:06.310Z,0.00
2022-08-26T02:34:06.174Z,0.00
2022-08-26T02:35:06.217Z,0.00
2022-08-26T02:36:06.203Z,0.00
2022-08-26T02:37:06.205Z,0.00
2022-08-26T02:38:09.933Z,0.00
2022-08-26T02:39:07.090Z,0.00
2022-08-26T02:40:06.444Z,0.00
2022-08-26T02:41:06.058Z,0.00
2022-08-26T02:42:06.019Z,0.00
2022-08-26T02:43:08.470Z,0.00
2022-08-26T02:44:06.366Z,0.00
2022-08-26T02:45:06.241Z,0.00
2022-08-26T02:46:05.966Z,0.00
2022-08-26T02:47:05.982Z,0.00
2022-08-26T02:48:06.871Z,0.00
2022-08-26T02:49:05.939Z,0.00
2022-08-26T02:50:05.919Z,0.00
2022-08-26T02:51:05.914Z,0.00
2022-08-26T02:52:05.932Z,0.00
2022-08-26T02:53:07.917Z,0.00
2022-08-26T02:54:06.843Z,0.00
2022-08-26T02:55:05.860Z,0.00
2022-08-26T02:56:07.119Z,0.00
2022-08-26T02:57:05.844Z,0.00
2022-08-26T02:58:06.651Z,0.00
2022-08-26T02:59:05.868Z,0.00
2022-08-26T03:00:05.805Z,0.00
2022-08-26T03:01:05.890Z,0.00
2022-08-26T03:02:05.774Z,0.00
2022-08-26T03:03:05.774Z,0.00
2022-08-26T03:04:05.755Z,0.00
2022-08-26T03:05:05.743Z,0.00
2022-08-26T03:06:05.746Z,0.00
2022-08-26T03:07:05.723Z,0.00
2022-08-26T03:08:05.707Z,0.00
2022-08-26T03:09:05.776Z,0.00
2022-08-26T03:10:08.243Z,0.00
2022-08-26T03:11:05.679Z,0.00
2022-08-26T03:12:05.624Z,0.00
2022-08-26T03:13:06.844Z,0.00
2022-08-26T03:14:05.662Z,0.00
2022-08-26T03:15:17.518Z,0.00
2022-08-26T03:16:06.625Z,0.00
2022-08-26T03:17:05.653Z,0.00
2022-08-26T03:18:05.648Z,0.00
2022-08-26T03:19:05.561Z,0.00
2022-08-26T03:20:05.576Z,0.00
2022-08-26T03:21:06.769Z,0.00
2022-08-26T03:22:05.515Z,0.00
2022-08-26T03:23:05.496Z,0.00
2022-08-26T03:24:05.488Z,0.00
2022-08-26T03:25:05.480Z,0.00
2022-08-26T03:26:05.490Z,0.00
2022-08-26T03:27:05.779Z,0.00
2022-08-26T03:28:05.450Z,0.00
2022-08-26T03:29:05.479Z,0.00
2022-08-26T03:30:05.400Z,0.00
2022-08-26T03:31:05.497Z,0.00
2022-08-26T03:32:05.559Z,0.00
2022-08-26T03:33:05.420Z,0.00
2022-08-26T03:34:05.394Z,0.00
2022-08-26T03:35:05.326Z,0.00
2022-08-26T03:36:05.333Z,0.00
2022-08-26T03:37:05.293Z,0.00
2022-08-26T03:38:05.295Z,0.00
2022-08-26T03:39:05.308Z,0.00
2022-08-26T03:40:05.385Z,0.00
2022-08-26T03:41:05.384Z,0.00
2022-08-26T03:42:05.264Z,0.00
2022-08-26T03:43:05.227Z,0.00
2022-08-26T03:44:05.259Z,0.00
2022-08-26T03:45:05.237Z,0.00
2022-08-26T03:46:06.544Z,0.00
2022-08-26T03:47:05.230Z,0.00
2022-08-26T03:48:05.164Z,0.00
2022-08-26T03:49:05.237Z,0.00
2022-08-26T03:50:05.187Z,0.00
2022-08-26T03:51:05.244Z,0.00
2022-08-26T03:52:05.138Z,0.00
2022-08-26T03:53:07.283Z,0.00
2022-08-26T03:54:05.179Z,0.00
2022-08-26T03:55:05.201Z,0.00
2022-08-26T03:56:05.072Z,0.00
2022-08-26T03:57:07.011Z,0.00
2022-08-26T03:58:06.491Z,0.00
2022-08-26T03:59:07.647Z,0.00
2022-08-26T04:00:06.100Z,0.00
2022-08-26T04:01:05.002Z,0.00
2022-08-26T04:02:11.304Z,0.00
2022-08-26T04:03:06.117Z,0.00
2022-08-26T04:04:04.954Z,0.00
2022-08-26T04:05:04.961Z,0.00
2022-08-26T04:06:04.996Z,0.00
2022-08-26T04:07:04.963Z,0.00
2022-08-26T04:08:06.366Z,0.00
2022-08-26T04:09:04.884Z,0.00
2022-08-26T04:10:04.937Z,5.62
2022-08-26T04:11:04.884Z,5.62
2022-08-26T04:12:04.928Z,5.62
2022-08-26T04:13:05.017Z,5.62
2022-08-26T04:14:04.835Z,5.62
2022-08-26T04:15:04.875Z,5.62
2022-08-26T04:16:06.814Z,5.62
2022-08-26T04:17:04.799Z,5.62
2022-08-26T04:18:04.988Z,11.25
2022-08-26T04:19:04.755Z,11.25
2022-08-26T04:20:04.748Z,11.25
2022-08-26T04:21:04.728Z,11.25
2022-08-26T04:22:04.740Z,16.88
2022-08-26T04:23:04.780Z,16.88
2022-08-26T04:24:04.803Z,16.88
2022-08-26T04:25:04.711Z,16.88
2022-08-26T04:26:04.715Z,22.50
2022-08-26T04:27:04.683Z,22.50
2022-08-26T04:28:05.460Z,22.50
2022-08-26T04:29:04.621Z,28.12
2022-08-26T04:30:05.780Z,28.12
2022-08-26T04:31:04.631Z,33.75
2022-08-26T04:32:04.655Z,33.75
2022-08-26T04:33:12.017Z,33.75
2022-08-26T04:34:05.628Z,39.38
2022-08-26T04:35:04.692Z,39.38
2022-08-26T04:36:04.642Z,39.38
2022-08-26T04:37:04.589Z,45.00
2022-08-26T04:38:05.795Z,45.00
2022-08-26T04:39:04.514Z,45.00
2022-08-26T04:40:04.585Z,50.62
2022-08-26T04:41:05.452Z,50.62
2022-08-26T04:42:04.516Z,50.62
2022-08-26T04:43:04.535Z,50.62
2022-08-26T04:44:04.588Z,50.62
2022-08-26T04:45:05.773Z,56.25
2022-08-26T04:46:05.482Z,56.25
2022-08-26T04:47:04.435Z,56.25
2022-08-26T04:48:05.592Z,61.88
2022-08-26T04:49:05.377Z,61.88
2022-08-26T04:50:04.383Z,61.88
2022-08-26T04:51:04.350Z,67.50
2022-08-26T04:52:04.380Z,67.50
2022-08-26T04:53:04.384Z,73.12
2022-08-26T04:54:04.370Z,73.12
2022-08-26T04:55:04.299Z,73.12
2022-08-26T04:56:04.382Z,78.75
2022-08-26T04:57:04.299Z,78.75
2022-08-26T04:58:04.339Z,84.38
2022-08-26T04:59:04.258Z,84.38
2022-08-26T05:00:04.228Z,90.00
2022-08-26T05:01:04.236Z,90.00
2022-08-26T05:02:04.275Z,95.62
2022-08-26T05:03:04.303Z,95.62
2022-08-26T05:04:05.128Z,101.25
2022-08-26T05:05:04.625Z,101.25
2022-08-26T05:06:04.204Z,106.88
2022-08-26T05:07:04.154Z,106.88
2022-08-26T05:08:04.175Z,106.88
2022-08-26T05:09:04.133Z,112.50
2022-08-26T05:10:04.134Z,112.50
2022-08-26T05:11:04.105Z,112.50
2022-08-26T05:12:04.101Z,118.12
2022-08-26T05:13:04.179Z,118.12
2022-08-26T05:14:05.083Z,118.12
2022-08-26T05:15:04.042Z,118.12
2022-08-26T05:16:04.152Z,123.75
2022-08-26T05:17:04.018Z,123.75
2022-08-26T05:18:04.169Z,123.75
2022-08-26T05:19:04.010Z,129.38
2022-08-26T05:20:04.031Z,129.38
2022-08-26T05:21:04.980Z,135.00
2022-08-26T05:22:03.985Z,135.00
2022-08-26T05:23:04.379Z,135.00
2022-08-26T05:24:05.200Z,140.62
2022-08-26T05:25:05.004Z,140.62
2022-08-26T05:26:05.013Z,140.62
2022-08-26T05:27:03.914Z,146.25
2022-08-26T05:28:05.008Z,146.25
2022-08-26T05:29:04.711Z,146.25
2022-08-26T05:30:03.891Z,151.88
2022-08-26T05:31:05.102Z,151.88
2022-08-26T05:32:04.945Z,151.88
2022-08-26T05:33:03.936Z,157.50
2022-08-26T05:34:03.916Z,157.50
2022-08-26T05:35:04.371Z,157.50
2022-08-26T05:36:03.799Z,157.50
2022-08-26T05:37:03.790Z,163.12
2022-08-26T05:38:04.455Z,163.12
2022-08-26T05:39:03.851Z,163.12
2022-08-26T05:40:04.055Z,163.12
2022-08-26T05:41:03.758Z,163.12
2022-08-26T05:42:04.496Z,163.12
2022-08-26T05:43:03.674Z,168.75
2022-08-26T05:44:03.655Z,168.75
2022-08-26T05:45:03.706Z,174.38
2022-08-26T05:46:03.746Z,174.38
2022-08-26T05:47:03.708Z,174.38
2022-08-26T05:48:04.432Z,180.00
2022-08-26T05:49:03.664Z,180.00
2022-08-26T05:50:03.709Z,180.00
2022-08-26T05:51:03.755Z,180.00
2022-08-26T05:52:03.960Z,185.62
2022-08-26T05:53:03.742Z,185.62
2022-08-26T05:54:04.368Z,185.62
2022-08-26T05:55:04.379Z,191.25
2022-08-26T05:56:03.638Z,191.25
2022-08-26T05:57:04.590Z,191.25
2022-08-26T05:58:03.644Z,196.88
2022-08-26T05:59:04.942Z,196.88
2022-08-26T06:00:04.549Z,202.50
2022-08-26T06:01:05.350Z,202.50
2022-08-26T06:02:03.653Z,202.50
2022-08-26T06:03:04.671Z,208.12
2022-08-26T06:04:03.744Z,208.12
2022-08-26T06:05:03.628Z,208.12
2022-08-26T06:06:03.377Z,208.12
2022-08-26T06:07:03.392Z,208.12
2022-08-26T06:08:03.441Z,213.75
2022-08-26T06:09:04.343Z,213.75
2022-08-26T06:10:28.687Z,213.75
2022-08-26T06:11:04.322Z,213.75
2022-08-26T06:12:03.390Z,213.75
2022-08-26T06:13:11.923Z,219.38
2022-08-26T06:14:04.431Z,219.38
2022-08-26T06:15:04.025Z,219.38
2022-08-26T06:16:03.384Z,225.00
2022-08-26T06:17:03.292Z,225.00
2022-08-26T06:18:03.255Z,230.62
2022-08-26T06:19:03.437Z,230.62
2022-08-26T06:20:04.189Z,230.62
2022-08-26T06:21:03.218Z,230.62
2022-08-26T06:22:04.240Z,230.62
2022-08-26T06:23:03.446Z,230.62
2022-08-26T06:24:03.261Z,230.62
2022-08-26T06:25:04.233Z,236.25
2022-08-26T06:26:07.259Z,236.25
2022-08-26T06:27:04.112Z,236.25
2022-08-26T06:28:03.191Z,236.25
2022-08-26T06:29:03.068Z,236.25
2022-08-26T06:30:03.057Z,236.25
2022-08-26T06:31:03.101Z,241.88
2022-08-26T06:32:03.053Z,241.88
2022-08-26T06:33:03.066Z,241.88
2022-08-26T06:34:06.173Z,241.88
2022-08-26T06:35:04.006Z,247.50
2022-08-26T06:36:02.999Z,247.50
2022-08-26T06:37:04.964Z,247.50
2022-08-26T06:38:03.025Z,247.50
2022-08-26T06:39:05.640Z,253.12
2022-08-26T06:40:19.138Z,253.12
2022-08-26T06:41:07.260Z,253.12
2022-08-26T06:42:03.255Z,258.75
2022-08-26T06:43:02.935Z,258.75
2022-08-26T06:44:03.032Z,258.75
2022-08-26T06:45:02.935Z,258.75
2022-08-26T06:46:04.285Z,264.38
2022-08-26T06:47:03.068Z,264.38
2022-08-26T06:48:02.869Z,270.00
2022-08-26T06:49:03.028Z,270.00
2022-08-26T06:50:02.851Z,275.62
2022-08-26T06:51:02.845Z,275.62
2022-08-26T06:52:03.519Z,281.25
2022-08-26T06:53:04.664Z,281.25
2022-08-26T06:54:03.560Z,286.88
2022-08-26T06:55:02.826Z,303.75
2022-08-26T06:56:26.511Z,315.00
2022-08-26T06:57:06.667Z,337.50
2022-08-26T06:58:04.779Z,360.00
2022-08-26T06:59:05.161Z,371.25
2022-08-26T07:00:06.859Z,371.25
2022-08-26T07:01:11.264Z,371.25
2022-08-26T07:02:05.820Z,365.62
2022-08-26T07:03:15.785Z,360.00
2022-08-26T07:04:05.490Z,348.75
2022-08-26T07:05:03.644Z,331.88
2022-08-26T07:06:02.697Z,315.00
2022-08-26T07:07:02.591Z,315.00
2022-08-26T07:08:02.631Z,320.62
2022-08-26T07:09:03.381Z,331.88
2022-08-26T07:10:02.591Z,326.25
2022-08-26T07:11:02.579Z,320.62
2022-08-26T07:12:02.573Z,315.00
2022-08-26T07:13:03.071Z,309.38
2022-08-26T07:14:02.506Z,303.75
2022-08-26T07:15:02.573Z,303.75
2022-08-26T07:16:06.156Z,303.75
2022-08-26T07:17:13.717Z,309.38
2022-08-26T07:18:05.753Z,320.62
2022-08-26T07:19:03.429Z,326.25
2022-08-26T07:20:03.438Z,337.50
2022-08-26T07:21:06.876Z,348.75
2022-08-26T07:22:13.653Z,354.38
2022-08-26T07:23:02.568Z,365.62
2022-08-26T07:24:02.428Z,371.25
2022-08-26T07:25:02.376Z,376.88
2022-08-26T07:26:03.232Z,382.50
2022-08-26T07:27:02.776Z,388.12
2022-08-26T07:28:02.481Z,393.75
2022-08-26T07:29:02.646Z,405.00
2022-08-26T07:30:02.332Z,405.00
2022-08-26T07:31:02.327Z,416.25
2022-08-26T07:32:02.524Z,421.88
2022-08-26T07:33:02.466Z,427.50
2022-08-26T07:34:03.175Z,427.50
2022-08-26T07:35:05.552Z,427.50
2022-08-26T07:36:04.277Z,433.12
2022-08-26T07:37:06.301Z,438.75
2022-08-26T07:38:07.568Z,444.38
2022-08-26T07:39:02.782Z,455.62
2022-08-26T07:40:03.371Z,466.88
2022-08-26T07:41:04.756Z,483.75
2022-08-26T07:42:07.680Z,495.00
2022-08-26T07:43:03.597Z,511.88
2022-08-26T07:44:02.102Z,523.12
2022-08-26T07:45:02.168Z,528.75
2022-08-26T07:46:03.349Z,540.00
2022-08-26T07:47:02.440Z,540.00
2022-08-26T07:48:02.068Z,540.00
2022-08-26T07:49:02.136Z,528.75
2022-08-26T07:50:02.957Z,517.50
2022-08-26T07:51:02.865Z,511.88
2022-08-26T07:52:02.432Z,506.25
2022-08-26T07:53:07.463Z,506.25
2022-08-26T07:54:04.042Z,511.88
2022-08-26T07:55:07.730Z,511.88
2022-08-26T07:56:01.973Z,523.12
2022-08-26T07:57:08.297Z,517.50
2022-08-26T07:58:04.770Z,523.12
2022-08-26T07:59:26.025Z,517.50
2022-08-26T08:00:08.213Z,511.88
2022-08-26T08:01:01.946Z,478.12
2022-08-26T08:02:02.006Z,461.25
2022-08-26T08:03:01.959Z,444.38
2022-08-26T08:04:01.888Z,427.50
2022-08-26T08:05:01.909Z,416.25
2022-08-26T08:06:02.956Z,405.00
2022-08-26T08:07:01.868Z,405.00
2022-08-26T08:08:27.646Z,399.38
2022-08-26T08:09:02.817Z,388.12
2022-08-26T08:10:04.566Z,376.88
2022-08-26T08:11:01.781Z,360.00
2022-08-26T08:12:03.423Z,343.12
2022-08-26T08:13:02.783Z,331.88
2022-08-26T08:14:04.797Z,320.62
2022-08-26T08:15:06.143Z,315.00
2022-08-26T08:16:04.225Z,315.00
2022-08-26T08:17:01.846Z,309.38
2022-08-26T08:18:01.841Z,315.00
2022-08-26T08:19:01.746Z,315.00
2022-08-26T08:20:01.689Z,320.62
2022-08-26T08:21:21.089Z,315.00
2022-08-26T08:22:02.652Z,315.00
2022-08-26T08:23:02.003Z,315.00
2022-08-26T08:24:01.593Z,309.38
2022-08-26T08:25:01.654Z,303.75
2022-08-26T08:26:01.627Z,303.75
2022-08-26T08:27:01.627Z,298.12
2022-08-26T08:28:26.890Z,303.75
2022-08-26T08:29:13.478Z,298.12
2022-08-26T08:30:03.132Z,303.75
2022-08-26T08:31:06.316Z,320.62
2022-08-26T08:32:01.722Z,326.25
2022-08-26T08:33:02.435Z,326.25
2022-08-26T08:34:01.978Z,320.62
2022-08-26T08:35:02.739Z,320.62
2022-08-26T08:36:02.433Z,303.75
2022-08-26T08:37:03.643Z,303.75
2022-08-26T08:38:01.615Z,303.75
2022-08-26T08:39:02.047Z,309.38
2022-08-26T08:40:02.918Z,309.38
2022-08-26T08:41:02.466Z,315.00
2022-08-26T08:42:01.613Z,315.00
2022-08-26T08:43:01.475Z,320.62
2022-08-26T08:44:01.595Z,326.25
2022-08-26T08:45:01.411Z,331.88
2022-08-26T08:46:01.462Z,337.50
2022-08-26T08:47:01.325Z,343.12
2022-08-26T08:48:01.968Z,348.75
2022-08-26T08:49:01.425Z,348.75
2022-08-26T08:50:01.270Z,354.38
2022-08-26T08:51:01.279Z,348.75
2022-08-26T08:52:01.420Z,348.75
2022-08-26T08:53:01.242Z,348.75
2022-08-26T08:54:01.316Z,348.75
2022-08-26T08:55:01.254Z,354.38
2022-08-26T08:56:01.360Z,360.00
2022-08-26T08:57:03.649Z,365.62
2022-08-26T08:58:03.280Z,371.25
2022-08-26T08:59:01.173Z,382.50
2022-08-26T09:00:01.232Z,399.38
2022-08-26T09:01:02.661Z,410.62
2022-08-26T09:02:01.346Z,416.25
2022-08-26T09:03:02.092Z,421.88
2022-08-26T09:04:01.181Z,427.50
2022-08-26T09:05:01.133Z,427.50
2022-08-26T09:06:01.115Z,427.50
2022-08-26T09:07:01.105Z,427.50
2022-08-26T09:08:01.095Z,433.12
2022-08-26T09:09:07.845Z,438.75
2022-08-26T09:10:03.811Z,455.62
2022-08-26T09:11:04.439Z,466.88
2022-08-26T09:12:01.017Z,472.50
2022-08-26T09:13:01.050Z,478.12
2022-08-26T09:14:00.953Z,478.12
2022-08-26T09:15:00.975Z,478.12
2022-08-26T09:16:01.085Z,472.50
2022-08-26T09:17:01.183Z,461.25
2022-08-26T09:18:00.974Z,455.62
2022-08-26T09:19:01.789Z,450.00
2022-08-26T09:20:01.111Z,450.00
2022-08-26T09:21:00.891Z,438.75
2022-08-26T09:22:02.157Z,444.38
2022-08-26T09:23:01.908Z,444.38
2022-08-26T09:24:00.969Z,444.38
2022-08-26T09:25:00.972Z,450.00
2022-08-26T09:26:00.852Z,450.00
2022-08-26T09:27:01.130Z,444.38
2022-08-26T09:28:00.806Z,438.75
2022-08-26T09:29:00.802Z,433.12
2022-08-26T09:30:00.769Z,427.50
2022-08-26T09:31:02.063Z,427.50
2022-08-26T09:32:00.876Z,427.50
2022-08-26T09:33:00.734Z,427.50
2022-08-26T09:34:00.735Z,433.12
2022-08-26T09:35:02.631Z,444.38
2022-08-26T09:36:02.569Z,461.25
2022-08-26T09:37:00.738Z,472.50
2022-08-26T09:38:01.809Z,489.38
2022-08-26T09:39:00.735Z,489.38
2022-08-26T09:40:00.757Z,495.00
2022-08-26T09:41:01.186Z,495.00
2022-08-26T09:42:00.602Z,489.38
2022-08-26T09:43:00.594Z,489.38
2022-08-26T09:44:00.622Z,483.75
2022-08-26T09:45:00.760Z,483.75
2022-08-26T09:46:00.587Z,483.75
2022-08-26T09:47:00.740Z,483.75
2022-08-26T09:48:01.351Z,483.75
2022-08-26T09:49:00.596Z,483.75
2022-08-26T09:50:00.557Z,483.75
2022-08-26T09:51:00.563Z,483.75
2022-08-26T09:52:00.467Z,478.12
2022-08-26T09:53:00.467Z,472.50
2022-08-26T09:54:00.463Z,472.50
2022-08-26T09:55:00.530Z,472.50
2022-08-26T09:56:00.521Z,478.12
2022-08-26T09:57:01.519Z,478.12
2022-08-26T09:58:08.735Z,483.75
2022-08-26T09:59:01.406Z,489.38
2022-08-26T10:00:00.425Z,495.00
2022-08-26T10:01:01.182Z,500.62
2022-08-26T10:03:00.426Z,500.62
2022-08-26T10:04:00.415Z,495.00
2022-08-26T10:05:09.158Z,489.38
2022-08-26T10:06:01.359Z,483.75
2022-08-26T10:07:01.740Z,478.12
2022-08-26T10:08:00.292Z,472.50
2022-08-26T10:09:04.519Z,466.88
2022-08-26T10:10:01.296Z,461.25
2022-08-26T10:11:01.718Z,461.25
2022-08-26T10:12:01.882Z,455.62
2022-08-26T10:13:04.639Z,450.00
2022-08-26T10:14:00.354Z,444.38
2022-08-26T10:15:01.803Z,438.75
2022-08-26T10:16:06.208Z,433.12
2022-08-26T10:17:12.450Z,433.12
2022-08-26T10:18:00.227Z,427.50
2022-08-26T10:19:08.830Z,427.50
2022-08-26T10:20:03.124Z,427.50
2022-08-26T10:21:02.023Z,427.50
2022-08-26T10:22:01.175Z,427.50
2022-08-26T10:23:03.742Z,421.88
2022-08-26T10:24:03.324Z,416.25
2022-08-26T10:25:00.966Z,416.25
2022-08-26T10:26:00.195Z,410.62
2022-08-26T10:27:00.055Z,410.62
2022-08-26T10:28:00.108Z,410.62
2022-08-26T10:29:00.065Z,416.25
2022-08-26T10:30:00.059Z,416.25
2022-08-26T10:31:00.004Z,421.88
2022-08-26T10:32:03.383Z,421.88
2022-08-26T10:32:59.963Z,427.50
2022-08-26T10:34:00.741Z,433.12
2022-08-26T10:35:00.046Z,433.12
2022-08-26T10:35:59.944Z,438.75
2022-08-26T10:37:14.242Z,444.38
2022-08-26T10:38:00.919Z,455.62
2022-08-26T10:38:59.934Z,461.25
2022-08-26T10:40:01.026Z,472.50
2022-08-26T10:40:59.875Z,483.75
2022-08-26T10:41:59.878Z,495.00
2022-08-26T10:42:59.977Z,511.88
2022-08-26T10:43:59.836Z,528.75
2022-08-26T10:44:59.886Z,545.62
2022-08-26T10:46:00.901Z,556.88
2022-08-26T10:46:59.787Z,573.75
2022-08-26T10:47:59.949Z,590.62
2022-08-26T10:49:00.099Z,601.88
2022-08-26T10:50:03.073Z,601.88
2022-08-26T10:50:59.798Z,601.88
2022-08-26T10:51:59.758Z,596.25
2022-08-26T10:53:01.771Z,590.62
2022-08-26T10:53:59.731Z,579.38
2022-08-26T10:55:00.349Z,573.75
2022-08-26T10:55:59.670Z,568.12
2022-08-26T10:56:59.689Z,562.50
2022-08-26T10:57:59.904Z,568.12
2022-08-26T10:59:00.930Z,579.38
2022-08-26T11:00:09.817Z,590.62
2022-08-26T11:01:11.224Z,596.25
2022-08-26T11:01:59.796Z,601.88
2022-08-26T11:02:59.649Z,613.12
2022-08-26T11:03:59.769Z,624.38
2022-08-26T11:05:00.722Z,630.00
2022-08-26T11:05:59.556Z,635.62
2022-08-26T11:06:59.532Z,635.62
2022-08-26T11:07:59.546Z,635.62
2022-08-26T11:08:59.694Z,635.62
2022-08-26T11:09:59.570Z,630.00
2022-08-26T11:10:59.634Z,630.00
2022-08-26T11:12:01.918Z,630.00
2022-08-26T11:13:03.364Z,624.38
2022-08-26T11:14:07.495Z,618.75
2022-08-26T11:14:59.724Z,618.75
2022-08-26T11:16:01.272Z,624.38
2022-08-26T11:17:01.362Z,624.38
2022-08-26T11:18:00.516Z,630.00
2022-08-26T11:19:03.843Z,635.62
2022-08-26T11:20:13.411Z,641.25
2022-08-26T11:20:59.444Z,652.50
2022-08-26T11:22:00.148Z,663.75
2022-08-26T11:23:00.508Z,675.00
2022-08-26T11:24:01.943Z,680.62
2022-08-26T11:25:01.072Z,686.25
2022-08-26T11:26:36.377Z,691.88
2022-08-26T11:27:00.372Z,697.50
2022-08-26T11:28:01.966Z,703.12
2022-08-26T11:29:00.307Z,714.38
2022-08-26T11:29:59.308Z,725.62
2022-08-26T11:31:00.688Z,736.88
2022-08-26T11:32:00.401Z,736.88
2022-08-26T11:33:01.084Z,736.88
2022-08-26T11:34:02.863Z,731.25
2022-08-26T11:35:00.527Z,720.00
2022-08-26T11:35:59.282Z,703.12
2022-08-26T11:37:00.115Z,697.50
2022-08-26T11:37:59.246Z,697.50
2022-08-26T11:39:24.549Z,697.50
2022-08-26T11:40:00.917Z,703.12
2022-08-26T11:41:01.017Z,714.38
2022-08-26T11:41:59.199Z,720.00
2022-08-26T11:43:02.564Z,731.25
2022-08-26T11:44:00.000Z,736.88
2022-08-26T11:45:03.482Z,748.12
2022-08-26T11:46:02.657Z,759.38
2022-08-26T11:47:00.672Z,770.62
2022-08-26T11:48:03.463Z,781.88
2022-08-26T11:48:59.728Z,793.12
2022-08-26T11:49:59.884Z,798.75
2022-08-26T11:50:59.797Z,798.75
2022-08-26T11:51:59.846Z,787.50
2022-08-26T11:53:06.121Z,776.25
2022-08-26T11:53:59.777Z,759.38
2022-08-26T11:55:04.150Z,725.62
2022-08-26T11:56:00.866Z,686.25
2022-08-26T11:56:59.695Z,641.25
2022-08-26T11:58:05.200Z,607.50
2022-08-26T11:59:00.327Z,568.12
2022-08-26T11:59:59.754Z,534.38
2022-08-26T12:01:00.608Z,511.88
2022-08-26T12:01:59.945Z,495.00
2022-08-26T12:02:59.439Z,478.12
2022-08-26T12:03:59.006Z,450.00
2022-08-26T12:04:59.976Z,427.50
2022-08-26T12:06:00.929Z,410.62
2022-08-26T12:07:05.123Z,393.75
2022-08-26T12:08:01.524Z,382.50
2022-08-26T12:09:22.857Z,371.25
2022-08-26T12:10:04.000Z,365.62
2022-08-26T12:11:02.357Z,365.62
2022-08-26T12:12:02.459Z,371.25
2022-08-26T12:13:01.119Z,376.88
2022-08-26T12:13:59.634Z,388.12
2022-08-26T12:14:58.770Z,399.38
2022-08-26T12:16:01.346Z,405.00
2022-08-26T12:16:58.673Z,416.25
2022-08-26T12:18:07.958Z,421.88
2022-08-26T12:18:59.707Z,421.88
2022-08-26T12:19:59.146Z,421.88
2022-08-26T12:21:00.506Z,421.88
2022-08-26T12:21:58.964Z,427.50
2022-08-26T12:22:58.696Z,433.12
2022-08-26T12:23:58.632Z,444.38
2022-08-26T12:25:00.234Z,444.38
2022-08-26T12:26:05.569Z,455.62
2022-08-26T12:26:58.603Z,461.25
2022-08-26T12:28:00.324Z,478.12
2022-08-26T12:28:59.527Z,489.38
2022-08-26T12:29:59.768Z,511.88
2022-08-26T12:31:00.990Z,545.62
2022-08-26T12:31:59.448Z,568.12
2022-08-26T12:33:00.149Z,596.25
2022-08-26T12:34:02.409Z,596.25
2022-08-26T12:34:58.893Z,596.25
2022-08-26T12:36:03.207Z,590.62
2022-08-26T12:38:03.754Z,573.75
2022-08-26T12:38:59.284Z,573.75
2022-08-26T12:39:58.550Z,562.50
2022-08-26T12:41:02.305Z,556.88
2022-08-26T12:42:02.486Z,551.25
2022-08-26T12:43:00.286Z,545.62
2022-08-26T12:44:01.449Z,534.38
2022-08-26T12:45:00.361Z,528.75
2022-08-26T12:45:58.497Z,511.88
2022-08-26T12:46:59.185Z,489.38
2022-08-26T12:47:59.447Z,483.75